createdAt,value
2019-04-29T00:01:50.142Z,4.98
2019-04-29T00:04:19.043Z,4.92
2019-04-29T00:06:48.306Z,4.89
2019-04-29T00:09:18.397Z,4.53
2019-04-29T00:11:47.359Z,4.75
2019-04-29T00:14:16.422Z,5.00
2019-04-29T00:17:00.572Z,4.98
2019-04-29T00:19:48.646Z,4.77
2019-04-29T00:22:17.643Z,4.71
2019-04-29T00:24:46.526Z,4.58
2019-04-29T00:27:15.472Z,4.52
2019-04-29T00:29:44.427Z,4.49
2019-04-29T00:32:13.275Z,4.53
2019-04-29T00:34:42.363Z,4.45
2019-04-29T00:37:28.536Z,4.42
2019-04-29T00:40:15.430Z,4.43
2019-04-29T00:42:54.138Z,4.35
2019-04-29T00:45:23.881Z,4.33
2019-04-29T00:47:53.108Z,4.29
2019-04-29T00:50:22.092Z,4.19
2019-04-29T00:52:51.072Z,4.13
2019-04-29T00:55:22.920Z,4.23
2019-04-29T00:57:51.849Z,4.19
2019-04-29T01:00:32.928Z,4.17
2019-04-29T01:03:01.929Z,4.10
2019-04-29T01:05:31.186Z,4.02
2019-04-29T01:08:00.392Z,4.01
2019-04-29T01:10:29.726Z,3.97
2019-04-29T01:12:59.238Z,3.95
2019-04-29T01:15:28.198Z,3.97
2019-04-29T01:17:56.995Z,3.97
2019-04-29T01:20:25.995Z,3.94
2019-04-29T01:22:54.885Z,4.00
2019-04-29T01:25:23.779Z,4.03
2019-04-29T01:27:59.298Z,4.07
2019-04-29T01:31:11.417Z,3.95
2019-04-29T01:33:43.346Z,3.91
2019-04-29T01:36:35.624Z,3.96
2019-04-29T01:39:07.671Z,3.99
2019-04-29T01:41:43.936Z,3.95
2019-04-29T01:44:12.870Z,3.88
2019-04-29T01:46:41.754Z,3.78
2019-04-29T01:49:10.735Z,3.66
2019-04-29T01:51:39.572Z,3.55
2019-04-29T01:54:08.469Z,3.53
2019-04-29T01:56:37.526Z,3.57
2019-04-29T01:59:06.476Z,3.54
2019-04-29T02:01:35.473Z,3.61
2019-04-29T02:04:04.655Z,3.66
2019-04-29T02:06:33.678Z,3.70
2019-04-29T02:09:04.287Z,3.70
2019-04-29T02:11:33.232Z,3.74
2019-04-29T02:14:02.084Z,3.90
2019-04-29T02:16:31.022Z,3.90
2019-04-29T02:18:59.952Z,3.88
2019-04-29T02:21:28.891Z,3.91
2019-04-29T02:24:07.262Z,3.86
2019-04-29T02:26:36.300Z,3.89
2019-04-29T02:29:05.238Z,3.82
2019-04-29T02:31:42.483Z,3.79
2019-04-29T02:34:11.786Z,3.77
2019-04-29T02:36:40.826Z,3.74
2019-04-29T02:39:28.670Z,3.65
2019-04-29T02:42:15.617Z,3.66
2019-04-29T02:44:44.590Z,3.63
2019-04-29T02:47:13.747Z,3.62
2019-04-29T02:49:42.672Z,3.53
2019-04-29T02:52:11.529Z,3.50
2019-04-29T02:54:40.377Z,3.58
2019-04-29T02:57:32.795Z,3.62
2019-04-29T03:00:16.791Z,3.53
2019-04-29T03:03:00.615Z,3.44
2019-04-29T03:05:34.527Z,3.37
2019-04-29T03:08:03.526Z,3.39
2019-04-29T03:10:32.575Z,3.28
2019-04-29T03:13:01.538Z,3.42
2019-04-29T03:15:32.172Z,3.34
2019-04-29T03:18:02.090Z,3.31
2019-04-29T03:20:49.970Z,3.34
2019-04-29T03:23:20.711Z,3.29
2019-04-29T03:25:49.686Z,3.29
2019-04-29T03:28:18.561Z,3.31
2019-04-29T03:30:47.504Z,3.28
2019-04-29T03:33:16.300Z,3.36
2019-04-29T03:35:45.279Z,3.36
2019-04-29T03:38:14.134Z,3.38
2019-04-29T03:40:43.305Z,3.44
2019-04-29T03:43:12.195Z,3.46
2019-04-29T03:45:41.137Z,3.39
2019-04-29T03:48:10.184Z,3.39
2019-04-29T03:50:39.137Z,3.43
2019-04-29T03:53:08.086Z,3.56
2019-04-29T03:55:40.541Z,3.46
2019-04-29T03:58:07.857Z,3.34
2019-04-29T04:00:36.793Z,3.25
2019-04-29T04:03:22.717Z,3.24
2019-04-29T04:06:15.416Z,3.21
2019-04-29T04:09:04.779Z,3.20
2019-04-29T04:11:18.331Z,3.20
2019-04-29T04:13:47.074Z,3.23
2019-04-29T04:16:32.881Z,3.29
2019-04-29T04:19:06.917Z,3.32
2019-04-29T04:21:35.767Z,3.36
2019-04-29T04:24:04.805Z,3.36
2019-04-29T04:26:33.629Z,3.42
2019-04-29T04:29:02.410Z,3.56
2019-04-29T04:31:31.274Z,3.56
2019-04-29T04:34:00.173Z,3.68
2019-04-29T04:36:29.219Z,3.75
2019-04-29T04:38:58.010Z,3.82
2019-04-29T04:41:26.990Z,3.84
2019-04-29T04:43:55.894Z,3.86
2019-04-29T04:46:24.873Z,3.91
2019-04-29T04:48:53.733Z,3.97
2019-04-29T04:51:22.755Z,4.05
2019-04-29T04:53:51.681Z,4.12
2019-04-29T04:56:20.712Z,4.19
2019-04-29T04:58:49.682Z,4.27
2019-04-29T05:01:18.636Z,4.39
2019-04-29T05:03:47.657Z,4.43
2019-04-29T05:06:16.526Z,4.51
2019-04-29T05:08:45.513Z,4.63
2019-04-29T05:11:14.492Z,4.80
2019-04-29T05:13:43.499Z,4.85
2019-04-29T05:16:12.473Z,4.86
2019-04-29T05:18:41.414Z,4.78
2019-04-29T05:21:10.473Z,4.75
2019-04-29T05:23:41.634Z,4.75
2019-04-29T05:26:09.919Z,4.79
2019-04-29T05:28:38.834Z,4.90
2019-04-29T05:31:07.773Z,5.19
2019-04-29T05:33:37.181Z,5.42
2019-04-29T05:36:24.299Z,5.58
2019-04-29T05:38:56.927Z,5.72
2019-04-29T05:41:30.163Z,5.77
2019-04-29T05:44:06.830Z,5.96
2019-04-29T05:46:45.920Z,5.90
2019-04-29T05:49:17.841Z,5.91
2019-04-29T05:51:52.545Z,6.19
2019-04-29T05:54:21.664Z,6.23
2019-04-29T05:56:50.664Z,6.36
2019-04-29T05:59:19.662Z,6.52
2019-04-29T06:01:48.959Z,6.58
2019-04-29T06:04:18.330Z,6.70
2019-04-29T06:06:47.185Z,6.86
2019-04-29T06:09:17.013Z,6.97
2019-04-29T06:11:48.051Z,7.09
2019-04-29T06:14:16.930Z,7.16
2019-04-29T06:16:45.913Z,7.24
2019-04-29T06:19:14.876Z,7.37
2019-04-29T06:21:43.662Z,7.50
2019-04-29T06:24:12.477Z,7.71
2019-04-29T06:26:43.617Z,7.80
2019-04-29T06:29:12.301Z,7.82
2019-04-29T06:31:41.062Z,8.01
2019-04-29T06:34:10.063Z,8.23
2019-04-29T06:36:38.965Z,8.46
2019-04-29T06:39:07.957Z,8.66
2019-04-29T06:41:40.610Z,8.80
2019-04-29T06:44:15.806Z,9.15
2019-04-29T06:46:38.152Z,9.24
2019-04-29T06:49:10.344Z,9.09
2019-04-29T06:51:37.734Z,9.15
2019-04-29T06:54:06.640Z,9.34
2019-04-29T06:56:35.604Z,9.46
2019-04-29T06:59:07.536Z,9.81
2019-04-29T07:01:37.511Z,10.07
2019-04-29T07:04:05.885Z,10.26
2019-04-29T07:06:34.880Z,10.61
2019-04-29T07:09:05.039Z,11.63
2019-04-29T07:11:36.642Z,12.44
2019-04-29T07:14:04.671Z,13.60
2019-04-29T07:16:33.627Z,13.64
2019-04-29T07:19:02.569Z,13.74
2019-04-29T07:21:31.504Z,13.82
2019-04-29T07:24:00.425Z,13.87
2019-04-29T07:26:29.485Z,14.22
2019-04-29T07:28:58.536Z,14.31
2019-04-29T07:31:28.294Z,14.23
2019-04-29T07:33:59.107Z,14.25
2019-04-29T07:36:28.112Z,14.15
2019-04-29T07:38:57.121Z,14.33
2019-04-29T07:41:26.023Z,14.04
2019-04-29T07:43:55.154Z,13.82
2019-04-29T07:46:55.639Z,13.34
2019-04-29T07:49:12.690Z,13.17
2019-04-29T07:51:40.841Z,13.58
2019-04-29T07:54:11.052Z,13.81
2019-04-29T07:56:42.292Z,14.01
2019-04-29T07:59:11.469Z,14.06
2019-04-29T08:01:40.310Z,13.81
2019-04-29T08:04:09.156Z,13.55
2019-04-29T08:06:43.031Z,14.31
2019-04-29T08:09:09.892Z,14.42
2019-04-29T08:11:38.839Z,14.77
2019-04-29T08:14:07.750Z,14.30
2019-04-29T08:16:36.636Z,13.92
2019-04-29T08:19:05.698Z,13.85
2019-04-29T08:21:34.566Z,13.70
2019-04-29T08:24:03.426Z,13.28
2019-04-29T08:26:33.716Z,13.33
2019-04-29T08:29:03.226Z,13.48
2019-04-29T08:31:32.138Z,13.45
2019-04-29T08:34:01.168Z,13.64
2019-04-29T08:36:30.147Z,14.00
2019-04-29T08:39:08.251Z,14.08
2019-04-29T08:41:30.096Z,14.07
2019-04-29T08:44:27.347Z,13.76
2019-04-29T08:47:01.819Z,13.86
2019-04-29T08:49:30.751Z,14.01
2019-04-29T08:51:59.853Z,14.18
2019-04-29T08:54:28.816Z,14.35
2019-04-29T08:57:02.947Z,14.63
2019-04-29T08:59:28.387Z,14.53
2019-04-29T09:01:57.365Z,14.58
2019-04-29T09:04:28.540Z,14.34
2019-04-29T09:06:56.853Z,14.33
2019-04-29T09:09:29.174Z,14.59
2019-04-29T09:11:56.264Z,14.95
2019-04-29T09:14:25.155Z,15.18
2019-04-29T09:16:54.235Z,15.40
2019-04-29T09:19:23.064Z,15.80
2019-04-29T09:21:56.071Z,16.25
2019-04-29T09:24:24.956Z,16.07
2019-04-29T09:26:59.995Z,16.17
2019-04-29T09:29:35.061Z,16.11
2019-04-29T09:32:04.863Z,16.21
2019-04-29T09:34:33.977Z,16.23
2019-04-29T09:37:03.044Z,16.26
2019-04-29T09:39:43.100Z,15.49
2019-04-29T09:42:15.529Z,15.42
2019-04-29T09:45:02.396Z,15.68
2019-04-29T09:47:32.001Z,15.81
2019-04-29T09:50:01.002Z,15.80
2019-04-29T09:52:30.045Z,15.92
2019-04-29T09:54:59.597Z,15.95
2019-04-29T09:57:29.595Z,15.89
2019-04-29T10:00:05.100Z,16.26
2019-04-29T10:02:55.229Z,15.70
2019-04-29T10:05:41.938Z,16.02
2019-04-29T10:08:11.274Z,15.80
2019-04-29T10:10:40.221Z,16.15
2019-04-29T10:13:09.539Z,16.42
2019-04-29T10:16:02.042Z,16.51
2019-04-29T10:18:36.833Z,16.66
2019-04-29T10:21:08.786Z,16.24
2019-04-29T10:23:37.694Z,16.00
2019-04-29T10:26:06.762Z,16.40
2019-04-29T10:28:38.248Z,16.38
2019-04-29T10:31:08.161Z,16.02
2019-04-29T10:33:37.053Z,16.50
2019-04-29T10:36:07.036Z,16.43
2019-04-29T10:38:35.958Z,16.32
2019-04-29T10:41:23.173Z,16.45
2019-04-29T10:44:09.902Z,15.98
2019-04-29T10:46:54.136Z,16.35
2019-04-29T10:49:27.811Z,16.08
2019-04-29T10:51:58.163Z,15.97
2019-04-29T10:54:28.509Z,16.17
2019-04-29T10:56:57.518Z,16.51
2019-04-29T10:59:35.589Z,16.84
2019-04-29T11:02:33.378Z,17.25
2019-04-29T11:05:21.164Z,17.42
2019-04-29T11:07:51.943Z,17.17
2019-04-29T11:10:27.138Z,16.99
2019-04-29T11:12:56.490Z,17.07
2019-04-29T11:15:32.605Z,16.60
2019-04-29T11:18:03.710Z,16.49
2019-04-29T11:20:33.326Z,16.78
2019-04-29T11:23:14.948Z,17.37
2019-04-29T11:25:59.191Z,17.07
2019-04-29T11:28:29.355Z,17.34
2019-04-29T11:30:58.298Z,17.44
2019-04-29T11:33:35.620Z,17.15
2019-04-29T11:36:09.241Z,16.56
2019-04-29T11:38:40.061Z,16.78
2019-04-29T11:41:11.717Z,16.26
2019-04-29T11:43:40.072Z,16.24
2019-04-29T11:46:09.968Z,16.38
2019-04-29T11:48:40.387Z,16.47
2019-04-29T11:51:19.592Z,16.50
2019-04-29T11:53:48.549Z,16.34
2019-04-29T11:56:17.526Z,16.41
2019-04-29T11:58:53.114Z,16.56
2019-04-29T12:01:50.860Z,16.29
2019-04-29T12:04:33.528Z,16.46
2019-04-29T12:07:01.314Z,16.66
2019-04-29T12:09:32.194Z,16.68
2019-04-29T12:12:01.300Z,16.59
2019-04-29T12:14:39.533Z,16.96
2019-04-29T12:17:16.142Z,16.55
2019-04-29T12:19:45.831Z,16.65
2019-04-29T12:22:26.844Z,16.61
2019-04-29T12:24:45.379Z,16.46
2019-04-29T12:27:14.726Z,16.74
2019-04-29T12:29:48.853Z,16.79
2019-04-29T12:32:26.902Z,17.23
2019-04-29T12:35:21.551Z,17.35
2019-04-29T12:38:20.447Z,17.01
2019-04-29T12:41:20.846Z,17.30
2019-04-29T12:43:59.194Z,17.29
2019-04-29T12:46:31.091Z,17.28
2019-04-29T12:49:03.489Z,17.16
2019-04-29T12:51:30.671Z,17.33
2019-04-29T12:53:59.661Z,17.28
2019-04-29T12:56:36.966Z,17.16
2019-04-29T12:59:06.848Z,17.35
2019-04-29T13:02:04.576Z,17.50
2019-04-29T13:04:51.356Z,17.47
2019-04-29T13:07:32.731Z,17.37
2019-04-29T13:10:08.521Z,17.30
2019-04-29T13:12:39.883Z,17.61
2019-04-29T13:15:39.480Z,17.52
2019-04-29T13:18:16.898Z,17.39
2019-04-29T13:20:45.613Z,16.48
2019-04-29T13:23:19.520Z,16.42
2019-04-29T13:25:46.291Z,16.40
2019-04-29T13:28:29.501Z,16.67
2019-04-29T13:30:46.851Z,16.60
2019-04-29T13:33:16.781Z,16.54
2019-04-29T13:35:48.469Z,16.63
2019-04-29T13:38:16.684Z,16.74
2019-04-29T13:40:45.686Z,16.81
2019-04-29T13:43:14.652Z,16.69
2019-04-29T13:45:53.062Z,16.54
2019-04-29T13:48:55.885Z,16.53
2019-04-29T13:51:35.317Z,16.49
2019-04-29T13:53:59.091Z,16.02
2019-04-29T13:56:39.393Z,15.59
2019-04-29T13:59:01.290Z,15.29
2019-04-29T14:01:59.952Z,15.07
2019-04-29T14:04:30.255Z,14.97
2019-04-29T14:06:59.148Z,14.84
2019-04-29T14:09:28.161Z,14.87
2019-04-29T14:12:02.877Z,15.06
2019-04-29T14:14:28.355Z,15.10
2019-04-29T14:17:17.256Z,15.04
2019-04-29T14:19:40.837Z,15.04
2019-04-29T14:21:58.540Z,15.07
2019-04-29T14:24:27.408Z,15.23
2019-04-29T14:26:57.547Z,15.39
2019-04-29T14:29:28.352Z,15.22
2019-04-29T14:32:00.810Z,15.05
2019-04-29T14:34:36.683Z,15.17
2019-04-29T14:37:21.386Z,15.10
2019-04-29T14:39:37.771Z,14.50
2019-04-29T14:42:32.040Z,14.31
2019-04-29T14:45:08.968Z,14.27
2019-04-29T14:47:49.430Z,14.26
2019-04-29T14:50:20.740Z,14.28
2019-04-29T14:52:50.504Z,14.20
2019-04-29T14:55:24.714Z,14.07
2019-04-29T14:57:50.267Z,13.98
2019-04-29T15:00:31.368Z,13.91
2019-04-29T15:03:01.099Z,13.80
2019-04-29T15:05:32.924Z,13.81
2019-04-29T15:08:01.561Z,13.77
2019-04-29T15:10:32.856Z,13.73
2019-04-29T15:13:20.730Z,13.68
2019-04-29T15:16:04.836Z,13.62
2019-04-29T15:18:53.145Z,13.61
2019-04-29T15:21:47.077Z,13.55
2019-04-29T15:24:17.624Z,13.45
2019-04-29T15:26:46.648Z,13.32
2019-04-29T15:29:15.715Z,13.37
2019-04-29T15:31:47.013Z,13.33
2019-04-29T15:34:15.388Z,13.31
2019-04-29T15:36:44.473Z,13.27
2019-04-29T15:39:13.790Z,13.32
2019-04-29T15:41:42.991Z,13.23
2019-04-29T15:44:18.835Z,13.29
2019-04-29T15:46:46.666Z,13.35
2019-04-29T15:49:13.251Z,13.26
2019-04-29T15:51:44.120Z,13.01
2019-04-29T15:54:14.360Z,13.08
2019-04-29T15:56:43.569Z,13.18
2019-04-29T15:59:12.667Z,13.24
2019-04-29T16:01:42.294Z,13.38
2019-04-29T16:04:15.823Z,13.48
2019-04-29T16:07:06.692Z,13.64
2019-04-29T16:09:57.320Z,13.81
2019-04-29T16:12:40.256Z,13.90
2019-04-29T16:15:09.292Z,13.85
2019-04-29T16:17:39.406Z,13.92
2019-04-29T16:20:08.570Z,13.86
2019-04-29T16:25:11.209Z,13.73
2019-04-29T16:27:41.647Z,13.63
2019-04-29T16:30:10.567Z,13.65
2019-04-29T16:32:40.605Z,13.72
2019-04-29T16:35:10.711Z,13.64
2019-04-29T16:37:39.723Z,13.46
2019-04-29T16:40:09.079Z,13.23
2019-04-29T16:42:45.330Z,12.93
2019-04-29T16:45:14.640Z,12.82
2019-04-29T16:47:47.469Z,12.61
2019-04-29T16:50:15.068Z,12.46
2019-04-29T16:52:44.541Z,12.36
2019-04-29T16:55:13.582Z,12.17
2019-04-29T16:57:42.608Z,12.28
2019-04-29T17:00:14.772Z,12.24
2019-04-29T17:02:44.190Z,12.10
2019-04-29T17:05:13.617Z,12.25
2019-04-29T17:07:42.594Z,12.26
2019-04-29T17:10:21.110Z,12.21
2019-04-29T17:12:51.262Z,12.24
2019-04-29T17:15:25.125Z,12.12
2019-04-29T17:17:50.962Z,12.15
2019-04-29T17:20:20.286Z,12.10
2019-04-29T17:22:50.538Z,12.12
2019-04-29T17:25:19.501Z,11.63
2019-04-29T17:28:25.699Z,12.22
2019-04-29T17:31:12.821Z,12.28
2019-04-29T17:33:50.957Z,12.27
2019-04-29T17:35:14.117Z,13.79
2019-04-29T17:36:23.807Z,12.29
2019-04-29T17:38:51.081Z,12.43
2019-04-29T17:41:20.077Z,12.39
2019-04-29T17:44:10.531Z,12.45
2019-04-29T17:46:48.263Z,12.32
2019-04-29T17:49:35.126Z,12.30
2019-04-29T17:52:06.780Z,12.23
2019-04-29T17:54:39.946Z,12.24
2019-04-29T17:57:27.926Z,12.11
2019-04-29T18:00:05.163Z,12.11
2019-04-29T18:02:57.359Z,12.18
2019-04-29T18:05:53.079Z,12.06
2019-04-29T18:08:35.625Z,12.07
2019-04-29T18:11:08.138Z,12.10
2019-04-29T18:13:35.886Z,12.00
2019-04-29T18:16:17.317Z,12.00
2019-04-29T18:18:49.191Z,12.01
2019-04-29T18:21:43.560Z,11.92
2019-04-29T18:24:15.430Z,11.82
2019-04-29T18:26:57.765Z,11.94
2019-04-29T18:29:28.398Z,12.00
2019-04-29T18:32:00.518Z,11.88
2019-04-29T18:34:29.306Z,11.78
2019-04-29T18:37:00.376Z,11.73
2019-04-29T18:39:31.673Z,11.54
2019-04-29T18:42:03.330Z,11.43
2019-04-29T18:44:31.228Z,11.35
2019-04-29T18:47:00.099Z,11.30
2019-04-29T18:49:29.014Z,11.26
2019-04-29T18:52:02.031Z,11.28
2019-04-29T18:54:28.657Z,11.33
2019-04-29T18:56:57.562Z,11.32
2019-04-29T18:59:33.644Z,11.46
2019-04-29T19:02:00.995Z,11.35
2019-04-29T19:04:42.302Z,11.16
2019-04-29T19:07:11.322Z,11.10
2019-04-29T19:09:41.604Z,10.98
2019-04-29T19:12:10.639Z,11.12
2019-04-29T19:14:39.613Z,11.13
2019-04-29T19:17:08.522Z,11.20
2019-04-29T19:19:39.279Z,11.19
2019-04-29T19:22:09.493Z,11.34
2019-04-29T19:24:38.675Z,11.44
2019-04-29T19:27:09.917Z,11.60
2019-04-29T19:29:38.837Z,11.54
2019-04-29T19:32:08.885Z,11.71
2019-04-29T19:34:42.780Z,11.85
2019-04-29T19:37:08.388Z,11.73
2019-04-29T19:39:37.331Z,11.87
2019-04-29T19:42:06.322Z,12.08
2019-04-29T19:44:36.760Z,11.92
2019-04-29T19:47:05.766Z,11.86
2019-04-29T19:49:36.042Z,11.83
2019-04-29T19:52:05.166Z,11.97
2019-04-29T19:54:34.211Z,11.93
2019-04-29T19:57:06.123Z,11.95
2019-04-29T19:59:36.121Z,11.87
2019-04-29T20:02:09.560Z,11.94
2019-04-29T20:04:40.917Z,11.91
2019-04-29T20:07:11.002Z,11.63
2019-04-29T20:09:41.548Z,11.60
2019-04-29T20:12:13.302Z,11.54
2019-04-29T20:14:42.373Z,11.54
2019-04-29T20:17:31.688Z,11.47
2019-04-29T20:20:35.028Z,11.45
2019-04-29T20:23:02.946Z,11.42
2019-04-29T20:25:37.840Z,11.46
2019-04-29T20:28:05.820Z,11.44
2019-04-29T20:30:34.637Z,11.40
2019-04-29T20:33:09.538Z,11.39
2019-04-29T20:35:35.768Z,11.30
2019-04-29T20:38:05.622Z,11.34
2019-04-29T20:40:38.842Z,11.38
2019-04-29T20:43:08.361Z,11.34
2019-04-29T20:45:36.833Z,11.36
2019-04-29T20:48:06.381Z,11.37
2019-04-29T20:50:35.735Z,11.43
2019-04-29T20:53:22.604Z,11.35
2019-04-29T20:55:51.901Z,11.34
2019-04-29T20:58:23.566Z,11.26
2019-04-29T21:00:51.703Z,11.25
2019-04-29T21:03:29.976Z,11.32
2019-04-29T21:06:02.197Z,11.43
2019-04-29T21:08:25.841Z,11.45
2019-04-29T21:10:56.475Z,11.38
2019-04-29T21:13:33.759Z,11.40
2019-04-29T21:16:16.483Z,11.49
2019-04-29T21:18:52.666Z,11.52
2019-04-29T21:21:16.203Z,11.43
2019-04-29T21:23:48.105Z,11.53
2019-04-29T21:26:16.455Z,11.51
2019-04-29T21:28:47.073Z,11.64
2019-04-29T21:31:19.817Z,11.61
2019-04-29T21:33:50.754Z,11.45
2019-04-29T21:36:30.704Z,11.34
2019-04-29T21:39:06.135Z,11.35
2019-04-29T21:41:43.144Z,11.41
2019-04-29T21:44:12.039Z,11.37
2019-04-29T21:46:40.941Z,11.40
2019-04-29T21:49:11.741Z,11.43
2019-04-29T21:51:41.799Z,11.42
2019-04-29T21:54:14.321Z,11.46
2019-04-29T21:56:46.270Z,11.38
2019-04-29T21:59:12.563Z,11.17
2019-04-29T22:01:41.647Z,11.26
2019-04-29T22:04:10.601Z,11.32
2019-04-29T22:06:39.479Z,11.27
2019-04-29T22:09:11.207Z,11.26
2019-04-29T22:11:43.469Z,11.28
2019-04-29T22:14:16.470Z,11.32
2019-04-29T22:16:54.281Z,11.23
2019-04-29T22:19:26.763Z,11.25
2019-04-29T22:22:01.460Z,11.13
2019-04-29T22:24:28.843Z,11.10
2019-04-29T22:27:04.114Z,11.15
2019-04-29T22:29:32.039Z,11.01
2019-04-29T22:31:59.578Z,10.90
2019-04-29T22:34:29.158Z,10.76
2019-04-29T22:37:01.020Z,10.62
2019-04-29T22:39:30.166Z,10.51
2019-04-29T22:42:18.302Z,10.31
2019-04-29T22:44:47.257Z,10.21
2019-04-29T22:47:17.391Z,10.06
2019-04-29T22:49:46.808Z,10.13
2019-04-29T22:52:17.520Z,10.05
2019-04-29T22:54:46.397Z,10.05
2019-04-29T22:57:15.682Z,10.04
2019-04-29T22:59:45.386Z,10.05
2019-04-29T23:02:15.761Z,10.05
2019-04-29T23:04:49.095Z,10.02
2019-04-29T23:07:17.620Z,10.05
2019-04-29T23:09:46.268Z,10.03
2019-04-29T23:12:18.786Z,10.05
2019-04-29T23:14:47.864Z,9.96
2019-04-29T23:17:16.791Z,9.98
2019-04-29T23:19:50.647Z,10.04
2019-04-29T23:22:42.969Z,10.01
2019-04-29T23:25:21.886Z,10.01
2019-04-29T23:27:52.715Z,9.88
2019-04-29T23:30:24.952Z,9.92
2019-04-29T23:32:53.856Z,10.05
2019-04-29T23:35:24.761Z,10.05
2019-04-29T23:37:58.717Z,10.09
2019-04-29T23:40:24.293Z,10.10
2019-04-29T23:42:53.220Z,10.04
2019-04-29T23:45:22.411Z,10.07
2019-04-29T23:47:51.418Z,9.91
2019-04-29T23:50:20.442Z,9.97
2019-04-29T23:52:51.825Z,9.90
2019-04-29T23:55:20.506Z,10.14
2019-04-29T23:58:02.840Z,10.27
